Ozgur Aksoy — 9HA2587 — position and weather

sailwx.info

Track history (hours):
 
Tides and Currents Weather Stations Pressure Air Temp Water Temp Dewpoint Dewpoint Depression Visibility Wind Speed Wind Dir Waves Ship Positions

Ozgur Aksoy

Last reported at 2015-Dec-31 22:23 UTC. Time now 2016-Feb-08 06:09 UTC.
Position N 21°52' E 114°24'.
Warning: this ship's position is 38 days out of date.

Length 196 m; draft 6.1 m.

Type: Cargo ship. MMSI: 248950000.

Date/timePositionNaut miles runAvg speedWind from/ knotsBaromVisibWave heightAir tempDewpointWater temp
2015-Dec-31 22:23N 21°52' E 114°24'1012.3
2015-Dec-31 21:33N 22°02' E 114°21'10 9.7
2015-Dec-31 20:31N 22°07' E 114°12'21 0.6
2015-Dec-30 11:33N 22°06' E 113°49'1110.7
2015-Dec-30 10:33N 22°17' E 113°48'  
2015-Dec-23 07:14N 23°05' E 113°29'0 0.0
2015-Dec-23 06:32N 23°05' E 113°29'0 0.0
2015-Dec-23 05:26N 23°05' E 113°29'1 0.6
2015-Dec-23 04:26N 23°05' E 113°28'3 3.9
2015-Dec-23 03:33N 23°03' E 113°31'  
Track history (hours):
 
Tides and Currents Weather Stations Pressure Air Temp Water Temp Dewpoint Dewpoint Depression Visibility Wind Speed Wind Dir Waves Ship Positions

Ozgur Aksoy

Last reported at 2015-Dec-31 22:23 UTC. Time now 2016-Feb-08 06:09 UTC.
Position N 21°52' E 114°24'.
Warning: this ship's position is 38 days out of date.

Length 196 m; draft 6.1 m.

Type: Cargo ship. MMSI: 248950000.

Date/timePositionNaut miles runAvg speedWind from/ knotsBaromVisibWave heightAir tempDewpointWater temp
2015-Dec-31 22:23N 21°52' E 114°24'1012.3
2015-Dec-31 21:33N 22°02' E 114°21'10 9.7
2015-Dec-31 20:31N 22°07' E 114°12'21 0.6
2015-Dec-30 11:33N 22°06' E 113°49'1110.7
2015-Dec-30 10:33N 22°17' E 113°48'  
2015-Dec-23 07:14N 23°05' E 113°29'0 0.0
2015-Dec-23 06:32N 23°05' E 113°29'0 0.0
2015-Dec-23 05:26N 23°05' E 113°29'1 0.6
2015-Dec-23 04:26N 23°05' E 113°28'3 3.9
2015-Dec-23 03:33N 23°03' E 113°31'  

Dump ship's entire track history